sensor_id;sensor_type;location;lat;lon;timestamp;P1;durP1;ratioP1;P2;durP2;ratioP2
12852;SDS011;6495;51.808;7.478;2023-01-08T00:02:17;2.47;;;1.65;;
12852;SDS011;6495;51.808;7.478;2023-01-08T00:05:04;2.45;;;1.65;;
12852;SDS011;6495;51.808;7.478;2023-01-08T00:07:52;2.65;;;1.52;;
12852;SDS011;6495;51.808;7.478;2023-01-08T00:10:38;2.00;;;1.60;;
12852;SDS011;6495;51.808;7.478;2023-01-08T00:13:27;2.08;;;1.33;;
12852;SDS011;6495;51.808;7.478;2023-01-08T00:16:15;2.08;;;1.40;;
12852;SDS011;6495;51.808;7.478;2023-01-08T00:19:07;1.63;;;1.38;;
12852;SDS011;6495;51.808;7.478;2023-01-08T00:21:56;2.22;;;1.70;;
12852;SDS011;6495;51.808;7.478;2023-01-08T00:24:42;1.45;;;1.25;;
12852;SDS011;6495;51.808;7.478;2023-01-08T00:27:29;1.83;;;1.38;;
12852;SDS011;6495;51.808;7.478;2023-01-08T00:30:17;1.58;;;1.48;;
12852;SDS011;6495;51.808;7.478;2023-01-08T00:33:04;2.05;;;1.70;;
12852;SDS011;6495;51.808;7.478;2023-01-08T00:35:51;2.45;;;1.65;;
12852;SDS011;6495;51.808;7.478;2023-01-08T00:38:38;1.70;;;1.30;;
12852;SDS011;6495;51.808;7.478;2023-01-08T00:41:25;1.23;;;1.13;;
12852;SDS011;6495;51.808;7.478;2023-01-08T00:44:12;3.00;;;1.30;;
12852;SDS011;6495;51.808;7.478;2023-01-08T00:47:00;1.75;;;1.10;;
12852;SDS011;6495;51.808;7.478;2023-01-08T00:49:47;1.20;;;1.10;;
12852;SDS011;6495;51.808;7.478;2023-01-08T00:52:34;2.15;;;1.30;;
12852;SDS011;6495;51.808;7.478;2023-01-08T00:55:21;1.40;;;1.30;;
12852;SDS011;6495;51.808;7.478;2023-01-08T00:58:08;2.30;;;1.30;;
12852;SDS011;6495;51.808;7.478;2023-01-08T01:00:55;1.35;;;1.23;;
12852;SDS011;6495;51.808;7.478;2023-01-08T01:03:46;1.05;;;1.02;;
12852;SDS011;6495;51.808;7.478;2023-01-08T01:06:33;1.52;;;1.10;;
12852;SDS011;6495;51.808;7.478;2023-01-08T01:09:20;1.30;;;1.17;;
12852;SDS011;6495;51.808;7.478;2023-01-08T01:12:08;1.30;;;1.08;;
12852;SDS011;6495;51.808;7.478;2023-01-08T01:14:55;1.20;;;1.10;;
12852;SDS011;6495;51.808;7.478;2023-01-08T01:17:43;1.20;;;1.10;;
12852;SDS011;6495;51.808;7.478;2023-01-08T01:20:36;1.27;;;1.02;;
12852;SDS011;6495;51.808;7.478;2023-01-08T01:23:23;1.75;;;1.27;;
12852;SDS011;6495;51.808;7.478;2023-01-08T01:26:15;1.45;;;1.10;;
12852;SDS011;6495;51.808;7.478;2023-01-08T01:29:03;2.35;;;1.30;;
12852;SDS011;6495;51.808;7.478;2023-01-08T01:31:50;1.35;;;1.25;;
12852;SDS011;6495;51.808;7.478;2023-01-08T01:34:37;1.50;;;1.20;;
12852;SDS011;6495;51.808;7.478;2023-01-08T01:37:25;1.08;;;0.90;;
12852;SDS011;6495;51.808;7.478;2023-01-08T01:40:12;1.15;;;1.02;;
12852;SDS011;6495;51.808;7.478;2023-01-08T01:42:59;1.65;;;1.30;;
12852;SDS011;6495;51.808;7.478;2023-01-08T01:45:46;1.73;;;1.30;;
12852;SDS011;6495;51.808;7.478;2023-01-08T01:48:33;1.52;;;1.30;;
12852;SDS011;6495;51.808;7.478;2023-01-08T01:51:20;1.33;;;1.23;;
12852;SDS011;6495;51.808;7.478;2023-01-08T01:54:10;1.30;;;1.15;;
12852;SDS011;6495;51.808;7.478;2023-01-08T01:56:58;1.13;;;0.98;;
12852;SDS011;6495;51.808;7.478;2023-01-08T01:59:45;2.33;;;1.20;;
12852;SDS011;6495;51.808;7.478;2023-01-08T02:02:34;1.30;;;1.20;;
12852;SDS011;6495;51.808;7.478;2023-01-08T02:05:20;1.63;;;1.25;;
12852;SDS011;6495;51.808;7.478;2023-01-08T02:08:11;1.92;;;1.20;;
12852;SDS011;6495;51.808;7.478;2023-01-08T02:11:09;1.58;;;1.05;;
12852;SDS011;6495;51.808;7.478;2023-01-08T02:14:01;0.98;;;0.90;;
12852;SDS011;6495;51.808;7.478;2023-01-08T02:17:00;1.20;;;1.08;;
12852;SDS011;6495;51.808;7.478;2023-01-08T02:19:54;1.30;;;1.20;;
12852;SDS011;6495;51.808;7.478;2023-01-08T02:22:54;1.60;;;1.20;;
12852;SDS011;6495;51.808;7.478;2023-01-08T02:26:06;1.23;;;1.10;;
12852;SDS011;6495;51.808;7.478;2023-01-08T02:29:02;1.17;;;1.05;;
12852;SDS011;6495;51.808;7.478;2023-01-08T02:31:53;1.70;;;1.10;;
12852;SDS011;6495;51.808;7.478;2023-01-08T02:34:41;1.08;;;0.98;;
12852;SDS011;6495;51.808;7.478;2023-01-08T02:37:28;1.52;;;1.23;;
12852;SDS011;6495;51.808;7.478;2023-01-08T02:40:20;1.35;;;0.98;;
12852;SDS011;6495;51.808;7.478;2023-01-08T02:43:16;2.42;;;1.10;;
12852;SDS011;6495;51.808;7.478;2023-01-08T02:46:12;1.45;;;1.17;;
12852;SDS011;6495;51.808;7.478;2023-01-08T02:49:04;1.83;;;1.08;;
12852;SDS011;6495;51.808;7.478;2023-01-08T02:51:56;1.00;;;0.90;;
12852;SDS011;6495;51.808;7.478;2023-01-08T02:54:47;1.90;;;1.10;;
12852;SDS011;6495;51.808;7.478;2023-01-08T02:57:35;1.15;;;1.05;;
12852;SDS011;6495;51.808;7.478;2023-01-08T03:00:24;1.25;;;1.15;;
12852;SDS011;6495;51.808;7.478;2023-01-08T03:03:13;1.92;;;1.00;;
12852;SDS011;6495;51.808;7.478;2023-01-08T03:06:06;1.20;;;0.95;;
12852;SDS011;6495;51.808;7.478;2023-01-08T03:08:57;1.23;;;1.13;;
12852;SDS011;6495;51.808;7.478;2023-01-08T03:11:46;2.17;;;1.20;;
12852;SDS011;6495;51.808;7.478;2023-01-08T03:14:42;1.35;;;1.25;;
12852;SDS011;6495;51.808;7.478;2023-01-08T03:17:38;1.27;;;1.13;;
12852;SDS011;6495;51.808;7.478;2023-01-08T03:20:30;1.45;;;1.02;;
12852;SDS011;6495;51.808;7.478;2023-01-08T03:23:21;1.50;;;0.93;;
12852;SDS011;6495;51.808;7.478;2023-01-08T03:26:11;1.35;;;1.20;;
12852;SDS011;6495;51.808;7.478;2023-01-08T03:29:02;1.45;;;1.17;;
12852;SDS011;6495;51.808;7.478;2023-01-08T03:31:55;1.55;;;1.10;;
12852;SDS011;6495;51.808;7.478;2023-01-08T03:34:49;1.65;;;1.38;;
12852;SDS011;6495;51.808;7.478;2023-01-08T03:37:40;1.23;;;1.13;;
12852;SDS011;6495;51.808;7.478;2023-01-08T03:40:33;1.50;;;1.00;;
12852;SDS011;6495;51.808;7.478;2023-01-08T03:43:28;1.60;;;0.95;;
12852;SDS011;6495;51.808;7.478;2023-01-08T03:46:16;4.07;;;1.55;;
12852;SDS011;6495;51.808;7.478;2023-01-08T03:49:11;2.00;;;1.35;;
12852;SDS011;6495;51.808;7.478;2023-01-08T03:52:02;1.17;;;1.08;;
12852;SDS011;6495;51.808;7.478;2023-01-08T03:54:49;7.05;;;1.33;;
12852;SDS011;6495;51.808;7.478;2023-01-08T03:57:36;1.67;;;1.25;;
12852;SDS011;6495;51.808;7.478;2023-01-08T04:00:23;2.03;;;1.30;;
12852;SDS011;6495;51.808;7.478;2023-01-08T04:03:10;1.65;;;1.27;;
12852;SDS011;6495;51.808;7.478;2023-01-08T04:05:58;1.52;;;1.20;;
12852;SDS011;6495;51.808;7.478;2023-01-08T04:08:47;1.60;;;1.27;;
12852;SDS011;6495;51.808;7.478;2023-01-08T04:11:34;1.25;;;1.15;;
12852;SDS011;6495;51.808;7.478;2023-01-08T04:14:21;2.58;;;1.48;;
12852;SDS011;6495;51.808;7.478;2023-01-08T04:17:09;1.77;;;1.27;;
12852;SDS011;6495;51.808;7.478;2023-01-08T04:19:57;1.30;;;1.13;;
12852;SDS011;6495;51.808;7.478;2023-01-08T04:22:44;1.25;;;1.10;;
12852;SDS011;6495;51.808;7.478;2023-01-08T04:25:32;2.53;;;1.42;;
12852;SDS011;6495;51.808;7.478;2023-01-08T04:28:19;1.42;;;1.23;;
12852;SDS011;6495;51.808;7.478;2023-01-08T04:31:06;1.17;;;0.98;;
12852;SDS011;6495;51.808;7.478;2023-01-08T04:33:53;1.30;;;1.10;;
12852;SDS011;6495;51.808;7.478;2023-01-08T04:36:40;3.13;;;1.15;;
12852;SDS011;6495;51.808;7.478;2023-01-08T04:39:27;1.40;;;1.30;;
12852;SDS011;6495;51.808;7.478;2023-01-08T04:42:16;1.70;;;1.25;;
12852;SDS011;6495;51.808;7.478;2023-01-08T04:45:03;1.80;;;1.17;;
12852;SDS011;6495;51.808;7.478;2023-01-08T04:47:54;3.30;;;1.00;;
12852;SDS011;6495;51.808;7.478;2023-01-08T04:50:41;1.40;;;1.23;;
12852;SDS011;6495;51.808;7.478;2023-01-08T04:53:28;1.45;;;1.10;;
12852;SDS011;6495;51.808;7.478;2023-01-08T04:56:19;1.15;;;1.05;;
12852;SDS011;6495;51.808;7.478;2023-01-08T04:59:08;3.85;;;1.05;;
12852;SDS011;6495;51.808;7.478;2023-01-08T05:01:54;1.92;;;1.30;;
12852;SDS011;6495;51.808;7.478;2023-01-08T05:04:42;1.75;;;1.10;;
12852;SDS011;6495;51.808;7.478;2023-01-08T05:07:28;1.17;;;0.98;;
12852;SDS011;6495;51.808;7.478;2023-01-08T05:10:15;1.15;;;1.05;;
12852;SDS011;6495;51.808;7.478;2023-01-08T05:13:02;1.10;;;0.93;;
12852;SDS011;6495;51.808;7.478;2023-01-08T05:15:51;0.80;;;0.80;;
12852;SDS011;6495;51.808;7.478;2023-01-08T05:18:38;2.90;;;1.33;;
12852;SDS011;6495;51.808;7.478;2023-01-08T05:21:25;1.20;;;1.10;;
12852;SDS011;6495;51.808;7.478;2023-01-08T05:24:12;1.25;;;0.98;;
12852;SDS011;6495;51.808;7.478;2023-01-08T05:26:58;2.13;;;1.30;;
12852;SDS011;6495;51.808;7.478;2023-01-08T05:29:45;1.80;;;1.20;;
12852;SDS011;6495;51.808;7.478;2023-01-08T05:32:34;2.85;;;1.20;;
12852;SDS011;6495;51.808;7.478;2023-01-08T05:35:20;1.13;;;1.05;;
12852;SDS011;6495;51.808;7.478;2023-01-08T05:38:08;1.00;;;0.90;;
12852;SDS011;6495;51.808;7.478;2023-01-08T05:40:54;1.35;;;1.10;;
12852;SDS011;6495;51.808;7.478;2023-01-08T05:43:41;1.63;;;0.90;;
12852;SDS011;6495;51.808;7.478;2023-01-08T05:46:28;1.63;;;1.30;;
12852;SDS011;6495;51.808;7.478;2023-01-08T05:49:16;1.15;;;1.05;;
12852;SDS011;6495;51.808;7.478;2023-01-08T05:52:03;2.15;;;1.10;;
12852;SDS011;6495;51.808;7.478;2023-01-08T05:54:50;1.27;;;1.17;;
12852;SDS011;6495;51.808;7.478;2023-01-08T05:57:37;2.22;;;0.98;;
12852;SDS011;6495;51.808;7.478;2023-01-08T06:00:24;0.90;;;0.75;;
12852;SDS011;6495;51.808;7.478;2023-01-08T06:03:11;1.35;;;1.13;;
12852;SDS011;6495;51.808;7.478;2023-01-08T06:06:00;1.10;;;0.90;;
12852;SDS011;6495;51.808;7.478;2023-01-08T06:08:49;1.05;;;0.90;;
12852;SDS011;6495;51.808;7.478;2023-01-08T06:11:36;1.45;;;0.98;;
12852;SDS011;6495;51.808;7.478;2023-01-08T06:14:23;1.88;;;1.00;;
12852;SDS011;6495;51.808;7.478;2023-01-08T06:17:10;1.10;;;1.00;;
12852;SDS011;6495;51.808;7.478;2023-01-08T06:19:58;0.98;;;0.90;;
12852;SDS011;6495;51.808;7.478;2023-01-08T06:22:46;2.42;;;0.90;;
12852;SDS011;6495;51.808;7.478;2023-01-08T06:25:33;1.63;;;0.90;;
12852;SDS011;6495;51.808;7.478;2023-01-08T06:28:20;0.93;;;0.82;;
12852;SDS011;6495;51.808;7.478;2023-01-08T06:31:08;1.27;;;0.90;;
12852;SDS011;6495;51.808;7.478;2023-01-08T06:33:55;1.00;;;0.90;;
12852;SDS011;6495;51.808;7.478;2023-01-08T06:36:44;1.15;;;0.90;;
12852;SDS011;6495;51.808;7.478;2023-01-08T06:39:46;1.10;;;1.00;;
12852;SDS011;6495;51.808;7.478;2023-01-08T06:42:34;2.28;;;0.90;;
12852;SDS011;6495;51.808;7.478;2023-01-08T06:45:21;0.60;;;0.60;;
12852;SDS011;6495;51.808;7.478;2023-01-08T06:48:09;0.93;;;0.80;;
12852;SDS011;6495;51.808;7.478;2023-01-08T06:50:58;1.35;;;0.65;;
12852;SDS011;6495;51.808;7.478;2023-01-08T06:53:46;0.80;;;0.80;;
12852;SDS011;6495;51.808;7.478;2023-01-08T06:56:35;4.18;;;1.27;;
12852;SDS011;6495;51.808;7.478;2023-01-08T06:59:37;1.10;;;1.00;;
12852;SDS011;6495;51.808;7.478;2023-01-08T07:02:24;1.15;;;1.00;;
12852;SDS011;6495;51.808;7.478;2023-01-08T07:05:11;1.20;;;0.70;;
12852;SDS011;6495;51.808;7.478;2023-01-08T07:07:59;0.60;;;0.60;;
12852;SDS011;6495;51.808;7.478;2023-01-08T07:10:49;1.95;;;0.80;;
12852;SDS011;6495;51.808;7.478;2023-01-08T07:13:37;1.05;;;0.95;;
12852;SDS011;6495;51.808;7.478;2023-01-08T07:16:24;0.80;;;0.60;;
12852;SDS011;6495;51.808;7.478;2023-01-08T07:19:11;1.08;;;0.93;;
12852;SDS011;6495;51.808;7.478;2023-01-08T07:21:58;1.63;;;1.00;;
12852;SDS011;6495;51.808;7.478;2023-01-08T07:24:46;2.03;;;1.00;;
12852;SDS011;6495;51.808;7.478;2023-01-08T07:27:33;1.42;;;0.80;;
12852;SDS011;6495;51.808;7.478;2023-01-08T07:30:21;0.60;;;0.60;;
12852;SDS011;6495;51.808;7.478;2023-01-08T07:33:14;2.67;;;0.88;;
12852;SDS011;6495;51.808;7.478;2023-01-08T07:36:02;0.93;;;0.70;;
12852;SDS011;6495;51.808;7.478;2023-01-08T07:38:50;2.97;;;0.82;;
12852;SDS011;6495;51.808;7.478;2023-01-08T07:41:37;0.45;;;0.45;;
12852;SDS011;6495;51.808;7.478;2023-01-08T07:44:24;1.30;;;0.90;;
12852;SDS011;6495;51.808;7.478;2023-01-08T07:47:13;0.57;;;0.55;;
12852;SDS011;6495;51.808;7.478;2023-01-08T07:50:01;1.67;;;1.00;;
12852;SDS011;6495;51.808;7.478;2023-01-08T07:52:48;3.30;;;1.08;;
12852;SDS011;6495;51.808;7.478;2023-01-08T07:55:35;2.35;;;1.00;;
12852;SDS011;6495;51.808;7.478;2023-01-08T07:58:28;1.05;;;0.95;;
12852;SDS011;6495;51.808;7.478;2023-01-08T08:10:12;0.80;;;0.70;;
12852;SDS011;6495;51.808;7.478;2023-01-08T08:13:03;1.35;;;1.10;;
12852;SDS011;6495;51.808;7.478;2023-01-08T08:15:50;4.85;;;1.02;;
12852;SDS011;6495;51.808;7.478;2023-01-08T08:18:37;1.70;;;0.70;;
12852;SDS011;6495;51.808;7.478;2023-01-08T08:21:25;2.35;;;0.90;;
12852;SDS011;6495;51.808;7.478;2023-01-08T08:24:27;2.90;;;1.05;;
12852;SDS011;6495;51.808;7.478;2023-01-08T08:27:54;1.03;;;0.70;;
12852;SDS011;6495;51.808;7.478;2023-01-08T08:30:52;1.45;;;0.90;;
12852;SDS011;6495;51.808;7.478;2023-01-08T08:35:02;2.42;;;1.10;;
12852;SDS011;6495;51.808;7.478;2023-01-08T08:37:53;1.52;;;0.80;;
12852;SDS011;6495;51.808;7.478;2023-01-08T08:40:59;1.13;;;0.80;;
12852;SDS011;6495;51.808;7.478;2023-01-08T08:43:55;1.20;;;0.63;;
12852;SDS011;6495;51.808;7.478;2023-01-08T08:46:42;0.73;;;0.70;;
12852;SDS011;6495;51.808;7.478;2023-01-08T08:49:30;1.43;;;1.03;;
12852;SDS011;6495;51.808;7.478;2023-01-08T08:52:16;0.50;;;0.50;;
12852;SDS011;6495;51.808;7.478;2023-01-08T08:55:03;0.80;;;0.73;;
12852;SDS011;6495;51.808;7.478;2023-01-08T08:57:51;2.63;;;1.00;;
12852;SDS011;6495;51.808;7.478;2023-01-08T09:00:40;0.90;;;0.73;;
12852;SDS011;6495;51.808;7.478;2023-01-08T09:03:29;1.10;;;0.90;;
12852;SDS011;6495;51.808;7.478;2023-01-08T09:06:16;2.23;;;1.00;;
12852;SDS011;6495;51.808;7.478;2023-01-08T09:09:03;1.03;;;0.93;;
12852;SDS011;6495;51.808;7.478;2023-01-08T09:11:50;1.90;;;0.50;;
12852;SDS011;6495;51.808;7.478;2023-01-08T09:14:38;2.67;;;0.70;;
12852;SDS011;6495;51.808;7.478;2023-01-08T09:17:26;2.63;;;0.70;;
12852;SDS011;6495;51.808;7.478;2023-01-08T09:20:13;0.90;;;0.80;;
12852;SDS011;6495;51.808;7.478;2023-01-08T09:23:00;1.30;;;0.60;;
12852;SDS011;6495;51.808;7.478;2023-01-08T09:25:48;1.20;;;0.70;;
12852;SDS011;6495;51.808;7.478;2023-01-08T09:28:35;3.27;;;0.70;;
12852;SDS011;6495;51.808;7.478;2023-01-08T09:31:23;2.55;;;0.80;;
12852;SDS011;6495;51.808;7.478;2023-01-08T09:34:11;3.57;;;0.80;;
12852;SDS011;6495;51.808;7.478;2023-01-08T09:36:58;0.60;;;0.60;;
12852;SDS011;6495;51.808;7.478;2023-01-08T09:39:45;0.63;;;0.63;;
12852;SDS011;6495;51.808;7.478;2023-01-08T09:42:45;0.60;;;0.50;;
12852;SDS011;6495;51.808;7.478;2023-01-08T09:45:39;2.92;;;0.95;;
12852;SDS011;6495;51.808;7.478;2023-01-08T09:48:28;2.05;;;0.70;;
12852;SDS011;6495;51.808;7.478;2023-01-08T09:51:33;4.18;;;0.90;;
12852;SDS011;6495;51.808;7.478;2023-01-08T09:54:31;1.85;;;0.80;;
12852;SDS011;6495;51.808;7.478;2023-01-08T09:57:19;4.65;;;1.02;;
12852;SDS011;6495;51.808;7.478;2023-01-08T10:00:09;1.45;;;1.00;;
12852;SDS011;6495;51.808;7.478;2023-01-08T10:03:03;1.42;;;0.60;;
12852;SDS011;6495;51.808;7.478;2023-01-08T10:05:51;4.20;;;1.20;;
12852;SDS011;6495;51.808;7.478;2023-01-08T10:08:39;1.92;;;0.85;;
12852;SDS011;6495;51.808;7.478;2023-01-08T10:11:29;3.88;;;1.20;;
12852;SDS011;6495;51.808;7.478;2023-01-08T10:14:25;4.05;;;0.73;;
12852;SDS011;6495;51.808;7.478;2023-01-08T10:17:22;3.80;;;0.88;;
12852;SDS011;6495;51.808;7.478;2023-01-08T10:20:16;1.90;;;0.85;;
12852;SDS011;6495;51.808;7.478;2023-01-08T10:23:08;6.50;;;1.15;;
12852;SDS011;6495;51.808;7.478;2023-01-08T10:26:01;2.85;;;0.98;;
12852;SDS011;6495;51.808;7.478;2023-01-08T10:28:51;4.68;;;1.10;;
12852;SDS011;6495;51.808;7.478;2023-01-08T10:31:52;4.13;;;0.80;;
12852;SDS011;6495;51.808;7.478;2023-01-08T10:34:44;3.80;;;1.15;;
12852;SDS011;6495;51.808;7.478;2023-01-08T10:37:36;2.80;;;1.02;;
12852;SDS011;6495;51.808;7.478;2023-01-08T10:40:29;2.70;;;1.00;;
12852;SDS011;6495;51.808;7.478;2023-01-08T10:43:27;3.67;;;0.90;;
12852;SDS011;6495;51.808;7.478;2023-01-08T10:46:23;2.15;;;0.90;;
12852;SDS011;6495;51.808;7.478;2023-01-08T10:49:18;1.38;;;0.65;;
12852;SDS011;6495;51.808;7.478;2023-01-08T10:52:24;2.05;;;0.93;;
12852;SDS011;6495;51.808;7.478;2023-01-08T10:55:20;1.33;;;0.93;;
12852;SDS011;6495;51.808;7.478;2023-01-08T10:58:16;3.58;;;1.05;;
12852;SDS011;6495;51.808;7.478;2023-01-08T11:01:11;4.57;;;1.33;;
12852;SDS011;6495;51.808;7.478;2023-01-08T11:04:15;3.72;;;1.20;;
12852;SDS011;6495;51.808;7.478;2023-01-08T11:07:14;3.95;;;1.15;;
12852;SDS011;6495;51.808;7.478;2023-01-08T11:10:19;2.08;;;0.88;;
12852;SDS011;6495;51.808;7.478;2023-01-08T11:13:13;2.38;;;0.93;;
12852;SDS011;6495;51.808;7.478;2023-01-08T11:16:10;3.88;;;1.00;;
12852;SDS011;6495;51.808;7.478;2023-01-08T11:18:59;1.80;;;0.88;;
12852;SDS011;6495;51.808;7.478;2023-01-08T11:21:57;2.10;;;0.90;;
12852;SDS011;6495;51.808;7.478;2023-01-08T11:24:47;2.35;;;0.80;;
12852;SDS011;6495;51.808;7.478;2023-01-08T11:27:38;4.57;;;1.25;;
12852;SDS011;6495;51.808;7.478;2023-01-08T11:30:31;3.17;;;0.93;;
12852;SDS011;6495;51.808;7.478;2023-01-08T11:33:32;2.72;;;1.00;;
12852;SDS011;6495;51.808;7.478;2023-01-08T11:36:26;1.83;;;0.80;;
12852;SDS011;6495;51.808;7.478;2023-01-08T11:39:21;3.05;;;0.93;;
12852;SDS011;6495;51.808;7.478;2023-01-08T11:42:17;1.80;;;0.73;;
12852;SDS011;6495;51.808;7.478;2023-01-08T11:45:24;2.22;;;1.00;;
12852;SDS011;6495;51.808;7.478;2023-01-08T11:48:46;1.73;;;0.93;;
12852;SDS011;6495;51.808;7.478;2023-01-08T11:55:23;1.60;;;0.80;;
12852;SDS011;6495;51.808;7.478;2023-01-08T11:58:39;2.20;;;0.98;;
12852;SDS011;6495;51.808;7.478;2023-01-08T12:01:49;1.67;;;0.80;;
12852;SDS011;6495;51.808;7.478;2023-01-08T12:04:55;6.68;;;1.15;;
12852;SDS011;6495;51.808;7.478;2023-01-08T12:08:15;2.97;;;0.85;;
12852;SDS011;6495;51.808;7.478;2023-01-08T12:11:22;3.60;;;0.93;;
12852;SDS011;6495;51.808;7.478;2023-01-08T12:14:28;2.15;;;1.35;;
12852;SDS011;6495;51.808;7.478;2023-01-08T12:17:56;1.02;;;0.85;;
12852;SDS011;6495;51.808;7.478;2023-01-08T12:21:18;1.15;;;0.80;;
12852;SDS011;6495;51.808;7.478;2023-01-08T12:24:25;1.50;;;1.00;;
12852;SDS011;6495;51.808;7.478;2023-01-08T12:27:48;1.52;;;0.82;;
12852;SDS011;6495;51.808;7.478;2023-01-08T12:30:50;1.48;;;0.75;;
12852;SDS011;6495;51.808;7.478;2023-01-08T12:34:09;0.52;;;0.52;;
12852;SDS011;6495;51.808;7.478;2023-01-08T12:37:08;1.88;;;0.63;;
12852;SDS011;6495;51.808;7.478;2023-01-08T12:40:14;1.88;;;0.90;;
12852;SDS011;6495;51.808;7.478;2023-01-08T12:43:13;1.65;;;0.73;;
12852;SDS011;6495;51.808;7.478;2023-01-08T12:46:07;1.83;;;0.88;;
12852;SDS011;6495;51.808;7.478;2023-01-08T12:49:00;1.05;;;0.73;;
12852;SDS011;6495;51.808;7.478;2023-01-08T12:51:55;1.50;;;0.73;;
12852;SDS011;6495;51.808;7.478;2023-01-08T12:54:52;3.08;;;1.00;;
12852;SDS011;6495;51.808;7.478;2023-01-08T12:57:51;1.13;;;0.60;;
12852;SDS011;6495;51.808;7.478;2023-01-08T13:00:50;3.63;;;1.20;;
12852;SDS011;6495;51.808;7.478;2023-01-08T13:03:50;0.60;;;0.60;;
12852;SDS011;6495;51.808;7.478;2023-01-08T13:06:50;1.83;;;0.80;;
12852;SDS011;6495;51.808;7.478;2023-01-08T13:09:41;1.75;;;0.80;;
12852;SDS011;6495;51.808;7.478;2023-01-08T13:12:33;3.33;;;0.98;;
12852;SDS011;6495;51.808;7.478;2023-01-08T13:15:23;5.43;;;1.23;;
12852;SDS011;6495;51.808;7.478;2023-01-08T13:18:16;2.13;;;0.70;;
12852;SDS011;6495;51.808;7.478;2023-01-08T13:21:06;0.65;;;0.35;;
12852;SDS011;6495;51.808;7.478;2023-01-08T13:27:24;3.28;;;0.65;;
12852;SDS011;6495;51.808;7.478;2023-01-08T13:30:34;0.35;;;0.35;;
12852;SDS011;6495;51.808;7.478;2023-01-08T13:33:37;3.88;;;0.73;;
12852;SDS011;6495;51.808;7.478;2023-01-08T13:36:27;0.52;;;0.52;;
12852;SDS011;6495;51.808;7.478;2023-01-08T13:39:20;0.30;;;0.30;;
12852;SDS011;6495;51.808;7.478;2023-01-08T13:42:19;0.30;;;0.30;;
12852;SDS011;6495;51.808;7.478;2023-01-08T13:45:12;1.35;;;0.40;;
12852;SDS011;6495;51.808;7.478;2023-01-08T13:48:05;1.08;;;0.50;;
12852;SDS011;6495;51.808;7.478;2023-01-08T13:51:04;0.80;;;0.70;;
12852;SDS011;6495;51.808;7.478;2023-01-08T13:54:17;0.63;;;0.63;;
12852;SDS011;6495;51.808;7.478;2023-01-08T13:57:11;0.75;;;0.57;;
12852;SDS011;6495;51.808;7.478;2023-01-08T14:00:02;3.05;;;0.65;;
12852;SDS011;6495;51.808;7.478;2023-01-08T14:02:54;0.80;;;0.77;;
12852;SDS011;6495;51.808;7.478;2023-01-08T14:05:42;0.63;;;0.55;;
12852;SDS011;6495;51.808;7.478;2023-01-08T14:08:29;1.05;;;0.70;;
12852;SDS011;6495;51.808;7.478;2023-01-08T14:11:16;0.82;;;0.55;;
12852;SDS011;6495;51.808;7.478;2023-01-08T14:14:05;0.70;;;0.70;;
12852;SDS011;6495;51.808;7.478;2023-01-08T14:16:58;1.85;;;0.80;;
12852;SDS011;6495;51.808;7.478;2023-01-08T14:19:45;0.68;;;0.68;;
12852;SDS011;6495;51.808;7.478;2023-01-08T14:22:35;0.50;;;0.50;;
12852;SDS011;6495;51.808;7.478;2023-01-08T14:25:22;1.17;;;0.63;;
12852;SDS011;6495;51.808;7.478;2023-01-08T14:28:11;1.42;;;0.52;;
12852;SDS011;6495;51.808;7.478;2023-01-08T14:31:01;0.95;;;0.57;;
12852;SDS011;6495;51.808;7.478;2023-01-08T14:33:48;0.82;;;0.50;;
12852;SDS011;6495;51.808;7.478;2023-01-08T14:36:37;1.35;;;0.57;;
12852;SDS011;6495;51.808;7.478;2023-01-08T14:39:31;0.60;;;0.55;;
12852;SDS011;6495;51.808;7.478;2023-01-08T14:42:20;4.50;;;0.70;;
12852;SDS011;6495;51.808;7.478;2023-01-08T14:45:28;0.80;;;0.50;;
12852;SDS011;6495;51.808;7.478;2023-01-08T14:48:19;0.57;;;0.57;;
12852;SDS011;6495;51.808;7.478;2023-01-08T14:51:12;1.55;;;0.52;;
12852;SDS011;6495;51.808;7.478;2023-01-08T14:54:06;1.55;;;0.65;;
12852;SDS011;6495;51.808;7.478;2023-01-08T14:56:55;0.73;;;0.73;;
12852;SDS011;6495;51.808;7.478;2023-01-08T14:59:45;2.25;;;0.60;;
12852;SDS011;6495;51.808;7.478;2023-01-08T15:02:39;1.08;;;0.90;;
12852;SDS011;6495;51.808;7.478;2023-01-08T15:05:27;2.17;;;0.98;;
12852;SDS011;6495;51.808;7.478;2023-01-08T15:08:21;1.17;;;0.80;;
12852;SDS011;6495;51.808;7.478;2023-01-08T15:11:18;0.77;;;0.75;;
12852;SDS011;6495;51.808;7.478;2023-01-08T15:14:12;1.23;;;0.70;;
12852;SDS011;6495;51.808;7.478;2023-01-08T15:17:03;0.60;;;0.60;;
12852;SDS011;6495;51.808;7.478;2023-01-08T15:19:57;0.80;;;0.70;;
12852;SDS011;6495;51.808;7.478;2023-01-08T15:22:45;0.90;;;0.77;;
12852;SDS011;6495;51.808;7.478;2023-01-08T15:25:32;3.10;;;1.17;;
12852;SDS011;6495;51.808;7.478;2023-01-08T15:28:19;1.38;;;0.85;;
12852;SDS011;6495;51.808;7.478;2023-01-08T15:31:08;1.48;;;0.90;;
12852;SDS011;6495;51.808;7.478;2023-01-08T15:33:55;0.90;;;0.80;;
12852;SDS011;6495;51.808;7.478;2023-01-08T15:36:44;1.95;;;0.80;;
12852;SDS011;6495;51.808;7.478;2023-01-08T15:39:31;1.00;;;0.90;;
12852;SDS011;6495;51.808;7.478;2023-01-08T15:42:18;1.27;;;0.80;;
12852;SDS011;6495;51.808;7.478;2023-01-08T15:45:26;3.25;;;1.05;;
12852;SDS011;6495;51.808;7.478;2023-01-08T15:48:17;0.77;;;0.75;;
12852;SDS011;6495;51.808;7.478;2023-01-08T15:51:04;2.60;;;1.13;;
12852;SDS011;6495;51.808;7.478;2023-01-08T15:53:51;1.50;;;1.10;;
12852;SDS011;6495;51.808;7.478;2023-01-08T15:56:38;1.55;;;1.40;;
12852;SDS011;6495;51.808;7.478;2023-01-08T15:59:26;4.60;;;1.30;;
12852;SDS011;6495;51.808;7.478;2023-01-08T16:02:13;3.70;;;1.20;;
12852;SDS011;6495;51.808;7.478;2023-01-08T16:05:02;2.30;;;1.20;;
12852;SDS011;6495;51.808;7.478;2023-01-08T16:07:49;2.53;;;1.17;;
12852;SDS011;6495;51.808;7.478;2023-01-08T16:10:36;1.67;;;1.20;;
12852;SDS011;6495;51.808;7.478;2023-01-08T16:13:23;2.50;;;1.47;;
12852;SDS011;6495;51.808;7.478;2023-01-08T16:16:10;2.13;;;1.10;;
12852;SDS011;6495;51.808;7.478;2023-01-08T16:18:59;1.30;;;1.10;;
12852;SDS011;6495;51.808;7.478;2023-01-08T16:21:47;1.07;;;1.03;;
12852;SDS011;6495;51.808;7.478;2023-01-08T16:24:34;1.30;;;1.00;;
12852;SDS011;6495;51.808;7.478;2023-01-08T16:27:22;1.43;;;1.00;;
12852;SDS011;6495;51.808;7.478;2023-01-08T16:30:11;1.47;;;1.20;;
12852;SDS011;6495;51.808;7.478;2023-01-08T16:32:59;1.50;;;1.10;;
12852;SDS011;6495;51.808;7.478;2023-01-08T16:35:54;3.97;;;1.13;;
12852;SDS011;6495;51.808;7.478;2023-01-08T16:38:42;2.03;;;0.93;;
12852;SDS011;6495;51.808;7.478;2023-01-08T16:41:33;1.60;;;1.10;;
12852;SDS011;6495;51.808;7.478;2023-01-08T16:44:21;1.30;;;1.10;;
12852;SDS011;6495;51.808;7.478;2023-01-08T16:47:12;1.57;;;1.27;;
12852;SDS011;6495;51.808;7.478;2023-01-08T16:49:58;2.47;;;1.10;;
12852;SDS011;6495;51.808;7.478;2023-01-08T16:52:45;2.50;;;1.60;;
12852;SDS011;6495;51.808;7.478;2023-01-08T16:55:36;3.00;;;1.60;;
12852;SDS011;6495;51.808;7.478;2023-01-08T16:58:24;3.33;;;1.63;;
12852;SDS011;6495;51.808;7.478;2023-01-08T17:01:11;2.00;;;1.50;;
12852;SDS011;6495;51.808;7.478;2023-01-08T17:03:59;1.73;;;1.23;;
12852;SDS011;6495;51.808;7.478;2023-01-08T17:06:46;1.30;;;1.20;;
12852;SDS011;6495;51.808;7.478;2023-01-08T17:09:32;2.07;;;1.40;;
12852;SDS011;6495;51.808;7.478;2023-01-08T17:12:21;1.37;;;1.10;;
12852;SDS011;6495;51.808;7.478;2023-01-08T17:15:07;1.57;;;1.20;;
12852;SDS011;6495;51.808;7.478;2023-01-08T17:17:55;2.53;;;1.10;;
12852;SDS011;6495;51.808;7.478;2023-01-08T17:20:42;1.33;;;1.00;;
12852;SDS011;6495;51.808;7.478;2023-01-08T17:23:34;4.37;;;1.60;;
12852;SDS011;6495;51.808;7.478;2023-01-08T17:26:21;3.63;;;1.83;;
12852;SDS011;6495;51.808;7.478;2023-01-08T17:29:09;6.03;;;1.77;;
12852;SDS011;6495;51.808;7.478;2023-01-08T17:31:56;1.80;;;1.37;;
12852;SDS011;6495;51.808;7.478;2023-01-08T17:34:42;1.40;;;1.17;;
12852;SDS011;6495;51.808;7.478;2023-01-08T17:37:29;3.07;;;1.17;;
12852;SDS011;6495;51.808;7.478;2023-01-08T17:40:16;1.43;;;1.00;;
12852;SDS011;6495;51.808;7.478;2023-01-08T17:43:03;1.13;;;1.00;;
12852;SDS011;6495;51.808;7.478;2023-01-08T17:45:53;1.97;;;1.10;;